sensor_id;sensor_type;location;lat;lon;timestamp;P1;durP1;ratioP1;P2;durP2;ratioP2
69244;SDS011;56357;52.304;4.870;2023-07-08T10:18:04;9.73;;;2.95;;
69244;SDS011;56357;52.304;4.870;2023-07-08T10:20:42;7.80;;;2.60;;
69244;SDS011;56357;52.304;4.870;2023-07-08T10:29:05;9.45;;;2.60;;
69244;SDS011;56357;52.304;4.870;2023-07-08T10:37:36;8.02;;;2.45;;
69244;SDS011;56357;52.304;4.870;2023-07-08T10:51:19;8.13;;;2.65;;
69244;SDS011;56357;52.304;4.870;2023-07-08T10:56:54;8.55;;;2.47;;
69244;SDS011;56357;52.304;4.870;2023-07-08T11:04:47;9.25;;;2.85;;
69244;SDS011;56357;52.304;4.870;2023-07-08T11:07:40;9.25;;;2.47;;
69244;SDS011;56357;52.304;4.870;2023-07-08T11:10:16;7.43;;;2.92;;
69244;SDS011;56357;52.304;4.870;2023-07-08T11:12:46;14.93;;;3.17;;
69244;SDS011;56357;52.304;4.870;2023-07-08T11:15:18;10.07;;;2.57;;
69244;SDS011;56357;52.304;4.870;2023-07-08T11:18:48;8.07;;;2.80;;
69244;SDS011;56357;52.304;4.870;2023-07-08T11:21:05;8.38;;;2.72;;
69244;SDS011;56357;52.304;4.870;2023-07-08T11:26:38;9.55;;;2.70;;
69244;SDS011;56357;52.304;4.870;2023-07-08T11:29:20;7.93;;;2.60;;
69244;SDS011;56357;52.304;4.870;2023-07-08T11:31:50;9.05;;;3.13;;
69244;SDS011;56357;52.304;4.870;2023-07-08T11:34:20;7.05;;;2.40;;
69244;SDS011;56357;52.304;4.870;2023-07-08T11:36:47;8.05;;;2.97;;
69244;SDS011;56357;52.304;4.870;2023-07-08T11:39:26;8.35;;;3.00;;
69244;SDS011;56357;52.304;4.870;2023-07-08T11:41:53;10.20;;;2.70;;
69244;SDS011;56357;52.304;4.870;2023-07-08T11:44:43;12.45;;;3.10;;
69244;SDS011;56357;52.304;4.870;2023-07-08T11:47:16;8.88;;;2.90;;
69244;SDS011;56357;52.304;4.870;2023-07-08T11:49:52;9.95;;;3.00;;
69244;SDS011;56357;52.304;4.870;2023-07-08T11:52:20;11.82;;;3.08;;
69244;SDS011;56357;52.304;4.870;2023-07-08T11:54:48;10.07;;;2.50;;
69244;SDS011;56357;52.304;4.870;2023-07-08T11:57:36;7.97;;;2.55;;
69244;SDS011;56357;52.304;4.870;2023-07-08T12:00:17;7.47;;;2.83;;
69244;SDS011;56357;52.304;4.870;2023-07-08T12:02:48;6.50;;;2.25;;
69244;SDS011;56357;52.304;4.870;2023-07-08T12:05:15;8.25;;;2.53;;
69244;SDS011;56357;52.304;4.870;2023-07-08T12:07:45;6.37;;;2.70;;
69244;SDS011;56357;52.304;4.870;2023-07-08T12:12:42;9.18;;;2.63;;
69244;SDS011;56357;52.304;4.870;2023-07-08T12:17:38;8.45;;;2.55;;
69244;SDS011;56357;52.304;4.870;2023-07-08T12:20:13;11.87;;;3.03;;
69244;SDS011;56357;52.304;4.870;2023-07-08T12:22:41;8.70;;;3.03;;
69244;SDS011;56357;52.304;4.870;2023-07-08T12:25:11;6.32;;;2.53;;
69244;SDS011;56357;52.304;4.870;2023-07-08T12:27:38;9.60;;;3.03;;
69244;SDS011;56357;52.304;4.870;2023-07-08T12:30:05;8.40;;;2.90;;
69244;SDS011;56357;52.304;4.870;2023-07-08T12:32:31;10.20;;;2.97;;
69244;SDS011;56357;52.304;4.870;2023-07-08T12:34:58;8.68;;;2.90;;
69244;SDS011;56357;52.304;4.870;2023-07-08T12:37:24;7.97;;;3.00;;
69244;SDS011;56357;52.304;4.870;2023-07-08T12:39:57;9.45;;;2.75;;
69244;SDS011;56357;52.304;4.870;2023-07-08T12:42:29;7.22;;;2.97;;
69244;SDS011;56357;52.304;4.870;2023-07-08T12:44:56;8.13;;;3.30;;
69244;SDS011;56357;52.304;4.870;2023-07-08T12:47:22;7.55;;;2.72;;
69244;SDS011;56357;52.304;4.870;2023-07-08T12:49:48;9.27;;;2.72;;
69244;SDS011;56357;52.304;4.870;2023-07-08T12:52:18;10.25;;;3.00;;
69244;SDS011;56357;52.304;4.870;2023-07-08T12:54:47;7.78;;;3.10;;
69244;SDS011;56357;52.304;4.870;2023-07-08T12:57:17;8.70;;;3.03;;
69244;SDS011;56357;52.304;4.870;2023-07-08T12:59:44;6.70;;;2.92;;
69244;SDS011;56357;52.304;4.870;2023-07-08T13:02:17;6.28;;;2.40;;
69244;SDS011;56357;52.304;4.870;2023-07-08T13:04:44;7.63;;;2.97;;
69244;SDS011;56357;52.304;4.870;2023-07-08T13:07:28;9.18;;;2.90;;
69244;SDS011;56357;52.304;4.870;2023-07-08T13:09:56;7.77;;;3.20;;
69244;SDS011;56357;52.304;4.870;2023-07-08T13:12:22;10.15;;;2.90;;
69244;SDS011;56357;52.304;4.870;2023-07-08T13:14:50;7.75;;;2.90;;
69244;SDS011;56357;52.304;4.870;2023-07-08T13:17:18;8.43;;;3.00;;
69244;SDS011;56357;52.304;4.870;2023-07-08T13:19:45;6.88;;;3.00;;
69244;SDS011;56357;52.304;4.870;2023-07-08T13:22:18;7.67;;;3.07;;
69244;SDS011;56357;52.304;4.870;2023-07-08T13:24:46;6.20;;;2.65;;
69244;SDS011;56357;52.304;4.870;2023-07-08T13:27:30;6.47;;;2.67;;
69244;SDS011;56357;52.304;4.870;2023-07-08T13:30:14;7.60;;;3.33;;
69244;SDS011;56357;52.304;4.870;2023-07-08T13:32:42;8.13;;;2.53;;
69244;SDS011;56357;52.304;4.870;2023-07-08T13:35:20;9.20;;;3.10;;
69244;SDS011;56357;52.304;4.870;2023-07-08T13:37:46;8.45;;;3.40;;
69244;SDS011;56357;52.304;4.870;2023-07-08T13:40:15;7.55;;;2.97;;
69244;SDS011;56357;52.304;4.870;2023-07-08T13:42:48;5.82;;;3.05;;
69244;SDS011;56357;52.304;4.870;2023-07-08T13:45:16;6.15;;;3.03;;
69244;SDS011;56357;52.304;4.870;2023-07-08T13:47:44;7.83;;;2.80;;
69244;SDS011;56357;52.304;4.870;2023-07-08T13:50:19;6.38;;;2.88;;
69244;SDS011;56357;52.304;4.870;2023-07-08T13:52:53;7.13;;;3.08;;
69244;SDS011;56357;52.304;4.870;2023-07-08T13:55:20;6.18;;;3.00;;
69244;SDS011;56357;52.304;4.870;2023-07-08T13:57:54;7.03;;;2.70;;
69244;SDS011;56357;52.304;4.870;2023-07-08T14:00:21;6.17;;;3.00;;
69244;SDS011;56357;52.304;4.870;2023-07-08T14:02:48;6.15;;;2.80;;
69244;SDS011;56357;52.304;4.870;2023-07-08T14:05:15;5.20;;;2.88;;
69244;SDS011;56357;52.304;4.870;2023-07-08T14:07:45;7.05;;;2.53;;
69244;SDS011;56357;52.304;4.870;2023-07-08T14:10:11;7.95;;;2.45;;
69244;SDS011;56357;52.304;4.870;2023-07-08T14:12:38;9.00;;;3.17;;
69244;SDS011;56357;52.304;4.870;2023-07-08T14:15:05;7.55;;;3.13;;
69244;SDS011;56357;52.304;4.870;2023-07-08T14:17:31;6.00;;;2.72;;
69244;SDS011;56357;52.304;4.870;2023-07-08T14:19:58;8.00;;;3.20;;
69244;SDS011;56357;52.304;4.870;2023-07-08T14:22:29;6.70;;;2.90;;
69244;SDS011;56357;52.304;4.870;2023-07-08T14:25:01;6.63;;;3.17;;
69244;SDS011;56357;52.304;4.870;2023-07-08T14:27:32;10.57;;;3.70;;
69244;SDS011;56357;52.304;4.870;2023-07-08T14:29:58;5.90;;;3.00;;
69244;SDS011;56357;52.304;4.870;2023-07-08T14:32:26;6.43;;;2.97;;
69244;SDS011;56357;52.304;4.870;2023-07-08T14:34:56;7.63;;;3.10;;
69244;SDS011;56357;52.304;4.870;2023-07-08T14:37:26;9.23;;;3.57;;
69244;SDS011;56357;52.304;4.870;2023-07-08T14:39:52;6.80;;;3.17;;
69244;SDS011;56357;52.304;4.870;2023-07-08T14:42:19;6.63;;;2.88;;
69244;SDS011;56357;52.304;4.870;2023-07-08T14:44:47;7.80;;;3.33;;
69244;SDS011;56357;52.304;4.870;2023-07-08T14:47:18;5.72;;;3.30;;
69244;SDS011;56357;52.304;4.870;2023-07-08T14:49:45;7.13;;;3.00;;
69244;SDS011;56357;52.304;4.870;2023-07-08T14:52:12;7.90;;;3.25;;
69244;SDS011;56357;52.304;4.870;2023-07-08T14:54:39;8.18;;;2.72;;
69244;SDS011;56357;52.304;4.870;2023-07-08T14:57:06;7.47;;;3.15;;
69244;SDS011;56357;52.304;4.870;2023-07-08T14:59:34;5.40;;;2.85;;
69244;SDS011;56357;52.304;4.870;2023-07-08T15:02:02;6.43;;;2.97;;
69244;SDS011;56357;52.304;4.870;2023-07-08T15:04:45;6.40;;;3.20;;
69244;SDS011;56357;52.304;4.870;2023-07-08T15:07:11;7.43;;;3.45;;
69244;SDS011;56357;52.304;4.870;2023-07-08T15:09:38;6.88;;;3.35;;
69244;SDS011;56357;52.304;4.870;2023-07-08T15:12:07;6.55;;;2.92;;
69244;SDS011;56357;52.304;4.870;2023-07-08T15:14:36;6.67;;;3.20;;
69244;SDS011;56357;52.304;4.870;2023-07-08T15:17:04;6.55;;;2.88;;
69244;SDS011;56357;52.304;4.870;2023-07-08T15:19:36;6.72;;;3.65;;
69244;SDS011;56357;52.304;4.870;2023-07-08T15:22:03;7.40;;;3.15;;
69244;SDS011;56357;52.304;4.870;2023-07-08T15:24:30;6.93;;;3.45;;
69244;SDS011;56357;52.304;4.870;2023-07-08T15:26:56;8.03;;;3.00;;
69244;SDS011;56357;52.304;4.870;2023-07-08T15:29:23;5.93;;;2.75;;
69244;SDS011;56357;52.304;4.870;2023-07-08T15:31:50;7.47;;;3.20;;
69244;SDS011;56357;52.304;4.870;2023-07-08T15:34:18;6.88;;;3.17;;
69244;SDS011;56357;52.304;4.870;2023-07-08T15:36:46;7.65;;;3.15;;
69244;SDS011;56357;52.304;4.870;2023-07-08T15:39:13;6.80;;;3.50;;
69244;SDS011;56357;52.304;4.870;2023-07-08T15:41:40;6.57;;;3.15;;
69244;SDS011;56357;52.304;4.870;2023-07-08T15:44:11;6.40;;;3.30;;
69244;SDS011;56357;52.304;4.870;2023-07-08T15:46:45;7.00;;;3.33;;
69244;SDS011;56357;52.304;4.870;2023-07-08T15:49:15;6.88;;;3.50;;
69244;SDS011;56357;52.304;4.870;2023-07-08T15:51:52;8.33;;;3.40;;
69244;SDS011;56357;52.304;4.870;2023-07-08T15:54:18;6.78;;;3.17;;
69244;SDS011;56357;52.304;4.870;2023-07-08T15:56:45;7.45;;;2.70;;
69244;SDS011;56357;52.304;4.870;2023-07-08T15:59:13;6.35;;;3.08;;
69244;SDS011;56357;52.304;4.870;2023-07-08T16:01:46;7.30;;;3.20;;
69244;SDS011;56357;52.304;4.870;2023-07-08T16:04:22;6.70;;;2.90;;
69244;SDS011;56357;52.304;4.870;2023-07-08T16:06:51;6.38;;;3.03;;
69244;SDS011;56357;52.304;4.870;2023-07-08T16:09:18;7.43;;;3.50;;
69244;SDS011;56357;52.304;4.870;2023-07-08T16:11:44;8.80;;;3.38;;
69244;SDS011;56357;52.304;4.870;2023-07-08T16:14:14;7.07;;;3.72;;
69244;SDS011;56357;52.304;4.870;2023-07-08T16:16:43;7.30;;;3.17;;
69244;SDS011;56357;52.304;4.870;2023-07-08T16:19:10;6.30;;;3.00;;
69244;SDS011;56357;52.304;4.870;2023-07-08T16:21:37;6.90;;;3.22;;
69244;SDS011;56357;52.304;4.870;2023-07-08T16:24:04;6.63;;;3.30;;
69244;SDS011;56357;52.304;4.870;2023-07-08T16:26:32;7.20;;;3.55;;
69244;SDS011;56357;52.304;4.870;2023-07-08T16:28:59;5.83;;;3.37;;
69244;SDS011;56357;52.304;4.870;2023-07-08T16:31:27;7.13;;;3.35;;
69244;SDS011;56357;52.304;4.870;2023-07-08T16:33:53;6.28;;;3.38;;
69244;SDS011;56357;52.304;4.870;2023-07-08T16:36:22;6.22;;;3.10;;
69244;SDS011;56357;52.304;4.870;2023-07-08T16:38:50;6.70;;;3.13;;
69244;SDS011;56357;52.304;4.870;2023-07-08T16:41:21;6.80;;;3.13;;
69244;SDS011;56357;52.304;4.870;2023-07-08T16:43:49;7.13;;;3.10;;
69244;SDS011;56357;52.304;4.870;2023-07-08T16:46:17;7.20;;;3.15;;
69244;SDS011;56357;52.304;4.870;2023-07-08T16:48:44;7.05;;;3.53;;
69244;SDS011;56357;52.304;4.870;2023-07-08T16:51:12;6.63;;;3.08;;
69244;SDS011;56357;52.304;4.870;2023-07-08T16:53:44;6.40;;;3.27;;
69244;SDS011;56357;52.304;4.870;2023-07-08T16:56:11;9.70;;;3.58;;
69244;SDS011;56357;52.304;4.870;2023-07-08T16:58:39;7.53;;;3.45;;
69244;SDS011;56357;52.304;4.870;2023-07-08T17:01:24;5.80;;;2.80;;
69244;SDS011;56357;52.304;4.870;2023-07-08T17:03:53;6.00;;;2.78;;
69244;SDS011;56357;52.304;4.870;2023-07-08T17:06:22;10.07;;;3.87;;
69244;SDS011;56357;52.304;4.870;2023-07-08T17:08:49;9.98;;;5.22;;
69244;SDS011;56357;52.304;4.870;2023-07-08T17:11:16;9.93;;;5.10;;
69244;SDS011;56357;52.304;4.870;2023-07-08T17:13:43;8.60;;;4.75;;
69244;SDS011;56357;52.304;4.870;2023-07-08T17:16:14;12.30;;;5.05;;
69244;SDS011;56357;52.304;4.870;2023-07-08T17:18:43;11.97;;;4.60;;
69244;SDS011;56357;52.304;4.870;2023-07-08T17:21:13;10.23;;;4.85;;
69244;SDS011;56357;52.304;4.870;2023-07-08T17:23:40;11.55;;;4.93;;
69244;SDS011;56357;52.304;4.870;2023-07-08T17:26:07;13.05;;;5.18;;
69244;SDS011;56357;52.304;4.870;2023-07-08T17:28:34;9.02;;;4.30;;
69244;SDS011;56357;52.304;4.870;2023-07-08T17:31:01;11.87;;;4.90;;
69244;SDS011;56357;52.304;4.870;2023-07-08T17:33:29;9.90;;;5.07;;
69244;SDS011;56357;52.304;4.870;2023-07-08T17:35:55;10.40;;;4.75;;
69244;SDS011;56357;52.304;4.870;2023-07-08T17:41:22;8.68;;;4.47;;
69244;SDS011;56357;52.304;4.870;2023-07-08T17:43:55;9.03;;;4.30;;
69244;SDS011;56357;52.304;4.870;2023-07-08T17:46:23;12.73;;;4.90;;
69244;SDS011;56357;52.304;4.870;2023-07-08T17:48:52;8.90;;;4.63;;
69244;SDS011;56357;52.304;4.870;2023-07-08T17:51:20;9.80;;;4.82;;
69244;SDS011;56357;52.304;4.870;2023-07-08T17:53:49;12.63;;;4.90;;
69244;SDS011;56357;52.304;4.870;2023-07-08T17:56:21;10.97;;;5.00;;
69244;SDS011;56357;52.304;4.870;2023-07-08T17:58:52;10.85;;;4.88;;
69244;SDS011;56357;52.304;4.870;2023-07-08T18:01:22;9.13;;;4.60;;
69244;SDS011;56357;52.304;4.870;2023-07-08T18:03:49;11.65;;;4.63;;
69244;SDS011;56357;52.304;4.870;2023-07-08T18:06:16;9.25;;;4.80;;
69244;SDS011;56357;52.304;4.870;2023-07-08T18:08:43;9.13;;;4.93;;
69244;SDS011;56357;52.304;4.870;2023-07-08T18:11:13;9.40;;;4.43;;
69244;SDS011;56357;52.304;4.870;2023-07-08T18:13:42;9.32;;;4.80;;
69244;SDS011;56357;52.304;4.870;2023-07-08T18:16:10;9.85;;;4.55;;
69244;SDS011;56357;52.304;4.870;2023-07-08T18:18:41;12.73;;;5.20;;
69244;SDS011;56357;52.304;4.870;2023-07-08T18:21:18;11.03;;;4.43;;
69244;SDS011;56357;52.304;4.870;2023-07-08T18:23:47;11.88;;;4.65;;
69244;SDS011;56357;52.304;4.870;2023-07-08T18:26:16;10.60;;;4.82;;
69244;SDS011;56357;52.304;4.870;2023-07-08T18:28:44;9.48;;;4.55;;
69244;SDS011;56357;52.304;4.870;2023-07-08T18:31:11;9.90;;;4.53;;
69244;SDS011;56357;52.304;4.870;2023-07-08T18:33:39;10.00;;;4.10;;
69244;SDS011;56357;52.304;4.870;2023-07-08T18:36:09;13.35;;;4.30;;
69244;SDS011;56357;52.304;4.870;2023-07-08T18:38:40;9.63;;;4.45;;
69244;SDS011;56357;52.304;4.870;2023-07-08T18:41:19;11.07;;;4.47;;
69244;SDS011;56357;52.304;4.870;2023-07-08T18:43:48;9.02;;;4.32;;
69244;SDS011;56357;52.304;4.870;2023-07-08T18:46:16;10.57;;;4.17;;
69244;SDS011;56357;52.304;4.870;2023-07-08T18:48:43;7.85;;;4.13;;
69244;SDS011;56357;52.304;4.870;2023-07-08T18:51:11;7.53;;;4.15;;
69244;SDS011;56357;52.304;4.870;2023-07-08T18:53:39;9.43;;;4.57;;
69244;SDS011;56357;52.304;4.870;2023-07-08T18:56:10;8.70;;;4.30;;
69244;SDS011;56357;52.304;4.870;2023-07-08T18:58:40;7.50;;;3.70;;
69244;SDS011;56357;52.304;4.870;2023-07-08T19:01:18;7.40;;;4.03;;
69244;SDS011;56357;52.304;4.870;2023-07-08T19:03:49;13.55;;;4.60;;
69244;SDS011;56357;52.304;4.870;2023-07-08T19:06:17;7.53;;;3.90;;
69244;SDS011;56357;52.304;4.870;2023-07-08T19:08:44;10.07;;;4.80;;
69244;SDS011;56357;52.304;4.870;2023-07-08T19:11:19;7.20;;;3.60;;
69244;SDS011;56357;52.304;4.870;2023-07-08T19:13:48;10.15;;;3.92;;
69244;SDS011;56357;52.304;4.870;2023-07-08T19:16:15;8.57;;;4.10;;
69244;SDS011;56357;52.304;4.870;2023-07-08T19:18:45;8.57;;;4.03;;
69244;SDS011;56357;52.304;4.870;2023-07-08T19:21:14;10.93;;;4.05;;
69244;SDS011;56357;52.304;4.870;2023-07-08T19:23:44;7.07;;;3.97;;
69244;SDS011;56357;52.304;4.870;2023-07-08T19:26:13;11.00;;;4.13;;
69244;SDS011;56357;52.304;4.870;2023-07-08T19:28:43;8.70;;;4.00;;
69244;SDS011;56357;52.304;4.870;2023-07-08T19:31:32;7.85;;;3.78;;
69244;SDS011;56357;52.304;4.870;2023-07-08T19:34:00;7.70;;;4.20;;
69244;SDS011;56357;52.304;4.870;2023-07-08T19:36:30;7.23;;;4.07;;
69244;SDS011;56357;52.304;4.870;2023-07-08T19:38:58;8.27;;;3.95;;
69244;SDS011;56357;52.304;4.870;2023-07-08T19:41:28;7.20;;;3.78;;
69244;SDS011;56357;52.304;4.870;2023-07-08T19:43:57;7.45;;;3.70;;
69244;SDS011;56357;52.304;4.870;2023-07-08T19:46:25;7.72;;;3.60;;
69244;SDS011;56357;52.304;4.870;2023-07-08T19:48:52;8.33;;;4.27;;
69244;SDS011;56357;52.304;4.870;2023-07-08T19:51:19;8.73;;;3.97;;
69244;SDS011;56357;52.304;4.870;2023-07-08T19:53:46;9.98;;;4.53;;
69244;SDS011;56357;52.304;4.870;2023-07-08T19:56:13;10.15;;;4.35;;
69244;SDS011;56357;52.304;4.870;2023-07-08T19:58:43;7.60;;;4.53;;
69244;SDS011;56357;52.304;4.870;2023-07-08T20:01:10;9.97;;;4.30;;
69244;SDS011;56357;52.304;4.870;2023-07-08T20:03:38;9.25;;;4.95;;
69244;SDS011;56357;52.304;4.870;2023-07-08T20:06:11;9.32;;;4.03;;
69244;SDS011;56357;52.304;4.870;2023-07-08T20:08:39;8.38;;;4.20;;
69244;SDS011;56357;52.304;4.870;2023-07-08T20:11:07;8.45;;;4.20;;
69244;SDS011;56357;52.304;4.870;2023-07-08T20:13:35;8.37;;;4.37;;
69244;SDS011;56357;52.304;4.870;2023-07-08T20:16:12;8.10;;;4.50;;
69244;SDS011;56357;52.304;4.870;2023-07-08T20:18:42;8.63;;;4.75;;
69244;SDS011;56357;52.304;4.870;2023-07-08T20:21:09;8.10;;;4.18;;
69244;SDS011;56357;52.304;4.870;2023-07-08T20:23:36;8.27;;;3.80;;
69244;SDS011;56357;52.304;4.870;2023-07-08T20:26:03;8.50;;;4.23;;
69244;SDS011;56357;52.304;4.870;2023-07-08T20:28:31;7.80;;;4.15;;
69244;SDS011;56357;52.304;4.870;2023-07-08T20:30:58;9.57;;;4.45;;
69244;SDS011;56357;52.304;4.870;2023-07-08T20:33:25;7.70;;;3.83;;
69244;SDS011;56357;52.304;4.870;2023-07-08T20:35:52;8.48;;;3.95;;
69244;SDS011;56357;52.304;4.870;2023-07-08T20:38:19;8.80;;;4.10;;
69244;SDS011;56357;52.304;4.870;2023-07-08T20:40:46;8.85;;;4.32;;
69244;SDS011;56357;52.304;4.870;2023-07-08T20:43:14;7.72;;;4.07;;
69244;SDS011;56357;52.304;4.870;2023-07-08T20:45:46;10.35;;;5.00;;
69244;SDS011;56357;52.304;4.870;2023-07-08T20:48:22;8.07;;;3.97;;
69244;SDS011;56357;52.304;4.870;2023-07-08T20:50:51;9.57;;;4.27;;
69244;SDS011;56357;52.304;4.870;2023-07-08T20:53:18;8.52;;;4.40;;
69244;SDS011;56357;52.304;4.870;2023-07-08T20:55:46;6.88;;;3.92;;
69244;SDS011;56357;52.304;4.870;2023-07-08T20:58:15;8.27;;;4.40;;
69244;SDS011;56357;52.304;4.870;2023-07-08T21:00:51;8.60;;;4.30;;
69244;SDS011;56357;52.304;4.870;2023-07-08T21:03:19;8.40;;;4.37;;
69244;SDS011;56357;52.304;4.870;2023-07-08T21:05:49;8.15;;;3.97;;
69244;SDS011;56357;52.304;4.870;2023-07-08T21:08:25;7.32;;;4.22;;
69244;SDS011;56357;52.304;4.870;2023-07-08T21:10:56;7.90;;;4.18;;
69244;SDS011;56357;52.304;4.870;2023-07-08T21:13:23;8.98;;;4.38;;
69244;SDS011;56357;52.304;4.870;2023-07-08T21:15:49;7.97;;;4.13;;
69244;SDS011;56357;52.304;4.870;2023-07-08T21:18:16;8.93;;;4.47;;
69244;SDS011;56357;52.304;4.870;2023-07-08T21:20:45;8.63;;;4.38;;
69244;SDS011;56357;52.304;4.870;2023-07-08T21:23:16;7.45;;;4.15;;
69244;SDS011;56357;52.304;4.870;2023-07-08T21:25:45;11.98;;;5.47;;
69244;SDS011;56357;52.304;4.870;2023-07-08T21:31:02;8.52;;;4.53;;
69244;SDS011;56357;52.304;4.870;2023-07-08T21:33:30;8.85;;;4.70;;
69244;SDS011;56357;52.304;4.870;2023-07-08T21:35:57;8.07;;;4.70;;
69244;SDS011;56357;52.304;4.870;2023-07-08T21:38:25;9.27;;;5.13;;
69244;SDS011;56357;52.304;4.870;2023-07-08T21:40:52;8.67;;;4.47;;
69244;SDS011;56357;52.304;4.870;2023-07-08T21:43:20;8.75;;;4.82;;
69244;SDS011;56357;52.304;4.870;2023-07-08T21:45:49;7.88;;;4.63;;
69244;SDS011;56357;52.304;4.870;2023-07-08T21:48:16;8.80;;;4.82;;
69244;SDS011;56357;52.304;4.870;2023-07-08T21:53:15;10.50;;;4.93;;
69244;SDS011;56357;52.304;4.870;2023-07-08T21:55:48;10.93;;;5.45;;
69244;SDS011;56357;52.304;4.870;2023-07-08T21:58:16;9.35;;;5.32;;
69244;SDS011;56357;52.304;4.870;2023-07-08T22:00:43;9.02;;;5.60;;
69244;SDS011;56357;52.304;4.870;2023-07-08T22:03:11;8.68;;;5.00;;
69244;SDS011;56357;52.304;4.870;2023-07-08T22:05:43;9.93;;;5.17;;
69244;SDS011;56357;52.304;4.870;2023-07-08T22:08:16;8.95;;;4.97;;
69244;SDS011;56357;52.304;4.870;2023-07-08T22:10:48;8.35;;;5.18;;
69244;SDS011;56357;52.304;4.870;2023-07-08T22:15:52;9.18;;;5.57;;
69244;SDS011;56357;52.304;4.870;2023-07-08T22:18:20;10.50;;;5.60;;
69244;SDS011;56357;52.304;4.870;2023-07-08T22:20:51;9.55;;;5.18;;
69244;SDS011;56357;52.304;4.870;2023-07-08T22:23:21;11.32;;;5.80;;
69244;SDS011;56357;52.304;4.870;2023-07-08T22:25:49;9.52;;;5.10;;
69244;SDS011;56357;52.304;4.870;2023-07-08T22:28:15;9.50;;;5.82;;
69244;SDS011;56357;52.304;4.870;2023-07-08T22:30:42;8.67;;;4.90;;
69244;SDS011;56357;52.304;4.870;2023-07-08T22:33:10;9.73;;;5.20;;
69244;SDS011;56357;52.304;4.870;2023-07-08T22:35:38;10.50;;;5.38;;
69244;SDS011;56357;52.304;4.870;2023-07-08T22:38:07;10.05;;;5.68;;
69244;SDS011;56357;52.304;4.870;2023-07-08T22:40:35;9.40;;;5.45;;
69244;SDS011;56357;52.304;4.870;2023-07-08T22:43:07;9.63;;;5.70;;
69244;SDS011;56357;52.304;4.870;2023-07-08T22:45:39;9.52;;;5.80;;
69244;SDS011;56357;52.304;4.870;2023-07-08T22:48:09;10.35;;;5.75;;
69244;SDS011;56357;52.304;4.870;2023-07-08T22:50:37;8.90;;;5.20;;
69244;SDS011;56357;52.304;4.870;2023-07-08T22:53:15;9.80;;;6.00;;
69244;SDS011;56357;52.304;4.870;2023-07-08T22:55:45;9.43;;;5.57;;
69244;SDS011;56357;52.304;4.870;2023-07-08T22:58:22;10.45;;;5.18;;
69244;SDS011;56357;52.304;4.870;2023-07-08T23:00:52;8.68;;;4.75;;
69244;SDS011;56357;52.304;4.870;2023-07-08T23:03:19;9.55;;;5.22;;
69244;SDS011;56357;52.304;4.870;2023-07-08T23:05:46;9.38;;;5.30;;
69244;SDS011;56357;52.304;4.870;2023-07-08T23:08:19;9.20;;;5.60;;
69244;SDS011;56357;52.304;4.870;2023-07-08T23:10:52;10.15;;;5.35;;
69244;SDS011;56357;52.304;4.870;2023-07-08T23:13:19;9.18;;;5.30;;
69244;SDS011;56357;52.304;4.870;2023-07-08T23:15:57;10.48;;;6.03;;
69244;SDS011;56357;52.304;4.870;2023-07-08T23:18:24;9.88;;;5.60;;
69244;SDS011;56357;52.304;4.870;2023-07-08T23:20:51;10.77;;;5.37;;
69244;SDS011;56357;52.304;4.870;2023-07-08T23:23:17;11.02;;;5.82;;
69244;SDS011;56357;52.304;4.870;2023-07-08T23:25:44;10.38;;;6.07;;
69244;SDS011;56357;52.304;4.870;2023-07-08T23:28:11;9.85;;;5.55;;
69244;SDS011;56357;52.304;4.870;2023-07-08T23:30:39;11.07;;;6.05;;
69244;SDS011;56357;52.304;4.870;2023-07-08T23:33:12;11.23;;;5.80;;
69244;SDS011;56357;52.304;4.870;2023-07-08T23:35:43;9.40;;;5.80;;
69244;SDS011;56357;52.304;4.870;2023-07-08T23:38:14;9.63;;;5.53;;
69244;SDS011;56357;52.304;4.870;2023-07-08T23:40:43;7.97;;;4.97;;
69244;SDS011;56357;52.304;4.870;2023-07-08T23:43:15;8.73;;;5.60;;
69244;SDS011;56357;52.304;4.870;2023-07-08T23:45:43;9.70;;;5.70;;
69244;SDS011;56357;52.304;4.870;2023-07-08T23:48:16;10.13;;;6.10;;
69244;SDS011;56357;52.304;4.870;2023-07-08T23:50:44;10.18;;;6.10;;
69244;SDS011;56357;52.304;4.870;2023-07-08T23:53:12;8.50;;;5.53;;
69244;SDS011;56357;52.304;4.870;2023-07-08T23:55:41;10.45;;;6.05;;
69244;SDS011;56357;52.304;4.870;2023-07-08T23:58:27;10.60;;;6.43;;
